Time,TemperatureF,DewpointF,PressureIn,WindDirection,WindDirectionDegrees,WindSpeedMPH,WindSpeedGustMPH,Humidity,HourlyPrecipIn,Conditions,Clouds,dailyrainin,SoftwareType,DateUTC
2013-06-16 00:03:00,56.7,33.2,29.85,ENE,69,0.0,1.0,41,0.00,,,0.00,Wunderground v.1.15,2013-06-16 07:03:00,
2013-06-16 00:08:00,56.3,34.1,29.85,East,88,1.0,1.0,43,0.00,,,0.00,Wunderground v.1.15,2013-06-16 07:08:00,
2013-06-16 00:14:00,55.9,33.7,29.85,East,88,0.0,1.0,43,0.00,,,0.00,Wunderground v.1.15,2013-06-16 07:14:00,
2013-06-16 00:20:00,55.4,34.9,29.84,East,88,2.0,2.0,46,0.00,,,0.00,Wunderground v.1.15,2013-06-16 07:20:00,
2013-06-16 00:25:00,54.8,33.3,29.84,East,88,0.0,2.0,44,0.00,,,0.00,Wunderground v.1.15,2013-06-16 07:25:00,
2013-06-16 00:30:00,54.5,33.6,29.85,East,88,0.0,0.0,45,0.00,,,0.00,Wunderground v.1.15,2013-06-16 07:30:00,
2013-06-16 00:35:00,54.2,33.3,29.85,East,88,2.0,4.0,45,0.00,,,0.00,Wunderground v.1.15,2013-06-16 07:35:00,
2013-06-16 00:41:00,54.2,32.2,29.85,East,93,2.0,4.0,43,0.00,,,0.00,Wunderground v.1.15,2013-06-16 07:41:00,
2013-06-16 00:46:00,54.4,32.3,29.86,East,99,4.0,6.0,43,0.00,,,0.00,Wunderground v.1.15,2013-06-16 07:46:00,
2013-06-16 00:52:00,54.5,31.3,29.86,East,99,4.0,4.0,41,0.00,,,0.00,Wunderground v.1.15,2013-06-16 07:52:00,
2013-06-16 00:57:00,54.5,31.3,29.86,East,99,0.0,4.0,41,0.00,,,0.00,Wunderground v.1.15,2013-06-16 07:57:00,
2013-06-16 01:02:00,54.4,31.2,29.86,East,99,0.0,1.0,41,0.00,,,0.00,Wunderground v.1.15,2013-06-16 08:02:00,
2013-06-16 01:08:00,53.9,31.9,29.86,East,99,0.0,1.0,43,0.00,,,0.00,Wunderground v.1.15,2013-06-16 08:08:00,
2013-06-16 01:13:00,53.6,31.6,29.86,East,99,0.0,0.0,43,0.00,,,0.00,Wunderground v.1.15,2013-06-16 08:13:00,
2013-06-16 01:19:00,53.3,31.9,29.86,East,99,0.0,0.0,44,0.00,,,0.00,Wunderground v.1.15,2013-06-16 08:19:00,
2013-06-16 01:24:00,53.1,32.8,29.86,East,99,0.0,0.0,46,0.00,,,0.00,Wunderground v.1.15,2013-06-16 08:24:00,
2013-06-16 01:30:00,52.6,32.4,29.85,East,99,0.0,0.0,46,0.00,,,0.00,Wunderground v.1.15,2013-06-16 08:30:00,
2013-06-16 01:35:00,52.2,32.6,29.85,East,99,0.0,0.0,47,0.00,,,0.00,Wunderground v.1.15,2013-06-16 08:35:00,
2013-06-16 01:41:00,51.7,32.1,29.85,East,99,0.0,0.0,47,0.00,,,0.00,Wunderground v.1.15,2013-06-16 08:41:00,
2013-06-16 01:46:00,51.3,33.3,29.86,East,99,0.0,0.0,50,0.00,,,0.00,Wunderground v.1.15,2013-06-16 08:46:00,
2013-06-16 01:52:00,50.7,32.2,29.86,East,99,0.0,0.0,49,0.00,,,0.00,Wunderground v.1.15,2013-06-16 08:52:00,
2013-06-16 01:57:00,50.1,33.1,29.86,East,99,0.0,0.0,52,0.00,,,0.00,Wunderground v.1.15,2013-06-16 08:57:00,
2013-06-16 02:02:00,49.6,32.7,29.87,East,99,0.0,0.0,52,0.00,,,0.00,Wunderground v.1.15,2013-06-16 09:02:00,
2013-06-16 02:07:00,49.2,32.3,29.87,East,99,0.0,0.0,52,0.00,,,0.00,Wunderground v.1.15,2013-06-16 09:07:00,
2013-06-16 02:12:00,48.8,32.4,29.87,East,99,0.0,0.0,53,0.00,,,0.00,Wunderground v.1.15,2013-06-16 09:12:00,
2013-06-16 02:17:00,48.3,32.4,29.86,East,99,0.0,0.0,54,0.00,,,0.00,Wunderground v.1.15,2013-06-16 09:17:00,
2013-06-16 02:22:00,48.0,32.6,29.86,East,99,0.0,0.0,55,0.00,,,0.00,Wunderground v.1.15,2013-06-16 09:22:00,
2013-06-16 02:27:00,47.7,32.8,29.86,East,99,0.0,0.0,56,0.00,,,0.00,Wunderground v.1.15,2013-06-16 09:27:00,
2013-06-16 02:32:00,47.6,32.2,29.88,East,99,0.0,0.0,55,0.00,,,0.00,Wunderground v.1.15,2013-06-16 09:32:00,
2013-06-16 02:37:00,47.4,31.6,29.88,East,99,0.0,0.0,54,0.00,,,0.00,Wunderground v.1.15,2013-06-16 09:37:00,
2013-06-16 02:42:00,47.3,31.0,29.88,East,99,0.0,0.0,53,0.00,,,0.00,Wunderground v.1.15,2013-06-16 09:42:00,
2013-06-16 02:47:00,47.0,32.1,29.87,East,99,0.0,0.0,56,0.00,,,0.00,Wunderground v.1.15,2013-06-16 09:47:00,
2013-06-16 02:52:00,46.7,31.8,29.87,East,99,0.0,0.0,56,0.00,,,0.00,Wunderground v.1.15,2013-06-16 09:52:00,
2013-06-16 02:57:00,46.5,33.8,29.87,East,99,0.0,0.0,61,0.00,,,0.00,Wunderground v.1.15,2013-06-16 09:57:00,
2013-06-16 03:02:00,46.2,33.5,29.88,East,99,0.0,0.0,61,0.00,,,0.00,Wunderground v.1.15,2013-06-16 10:02:00,
2013-06-16 03:07:00,46.0,33.3,29.88,East,99,0.0,0.0,61,0.00,,,0.00,Wunderground v.1.15,2013-06-16 10:07:00,
2013-06-16 03:12:00,45.8,32.7,29.88,East,99,0.0,0.0,60,0.00,,,0.00,Wunderground v.1.15,2013-06-16 10:12:00,
2013-06-16 03:17:00,45.7,33.0,29.88,East,99,0.0,0.0,61,0.00,,,0.00,Wunderground v.1.15,2013-06-16 10:17:00,
2013-06-16 03:22:00,45.4,32.7,29.88,East,99,0.0,0.0,61,0.00,,,0.00,Wunderground v.1.15,2013-06-16 10:22:00,
2013-06-16 03:27:00,45.2,32.5,29.88,East,99,0.0,0.0,61,0.00,,,0.00,Wunderground v.1.15,2013-06-16 10:27:00,
2013-06-16 03:32:00,45.1,32.4,29.89,East,99,0.0,0.0,61,0.00,,,0.00,Wunderground v.1.15,2013-06-16 10:32:00,
2013-06-16 03:37:00,45.1,32.4,29.89,East,99,0.0,0.0,61,0.00,,,0.00,Wunderground v.1.15,2013-06-16 10:37:00,
2013-06-16 03:42:00,44.8,32.2,29.89,East,99,1.0,1.0,61,0.00,,,0.00,Wunderground v.1.15,2013-06-16 10:42:00,
2013-06-16 03:47:00,44.6,31.6,29.89,East,99,0.0,1.0,60,0.00,,,0.00,Wunderground v.1.15,2013-06-16 10:47:00,
2013-06-16 03:52:00,44.5,30.6,29.89,East,99,0.0,4.0,58,0.00,,,0.00,Wunderground v.1.15,2013-06-16 10:52:00,
2013-06-16 03:57:00,44.3,30.0,29.89,East,99,0.0,4.0,57,0.00,,,0.00,Wunderground v.1.15,2013-06-16 10:57:00,
2013-06-16 04:02:00,44.3,29.6,29.90,East,99,0.0,1.0,56,0.00,,,0.00,Wunderground v.1.15,2013-06-16 11:02:00,
2013-06-16 04:07:00,44.5,29.8,29.90,East,99,0.0,1.0,56,0.00,,,0.00,Wunderground v.1.15,2013-06-16 11:07:00,
2013-06-16 04:12:00,44.5,29.8,29.90,East,99,0.0,4.0,56,0.00,,,0.00,Wunderground v.1.15,2013-06-16 11:12:00,
2013-06-16 04:17:00,44.3,29.6,29.90,East,99,0.0,4.0,56,0.00,,,0.00,Wunderground v.1.15,2013-06-16 11:17:00,
2013-06-16 04:22:00,44.3,29.6,29.90,East,99,0.0,0.0,56,0.00,,,0.00,Wunderground v.1.15,2013-06-16 11:22:00,
2013-06-16 04:27:00,44.2,29.5,29.90,East,99,0.0,0.0,56,0.00,,,0.00,Wunderground v.1.15,2013-06-16 11:27:00,
2013-06-16 04:32:00,44.1,29.4,29.91,East,99,0.0,0.0,56,0.00,,,0.00,Wunderground v.1.15,2013-06-16 11:32:00,
2013-06-16 04:37:00,43.9,29.2,29.91,East,99,0.0,0.0,56,0.00,,,0.00,Wunderground v.1.15,2013-06-16 11:37:00,
2013-06-16 04:42:00,43.8,29.1,29.91,East,99,0.0,0.0,56,0.00,,,0.00,Wunderground v.1.15,2013-06-16 11:42:00,
2013-06-16 04:47:00,43.5,29.3,29.91,East,99,0.0,0.0,57,0.00,,,0.00,Wunderground v.1.15,2013-06-16 11:47:00,
2013-06-16 04:52:00,43.3,29.5,29.91,East,99,0.0,0.0,58,0.00,,,0.00,Wunderground v.1.15,2013-06-16 11:52:00,
2013-06-16 04:57:00,43.2,29.8,29.91,East,99,0.0,0.0,59,0.00,,,0.00,Wunderground v.1.15,2013-06-16 11:57:00,
2013-06-16 05:02:00,42.8,29.5,29.92,East,99,0.0,0.0,59,0.00,,,0.00,Wunderground v.1.15,2013-06-16 12:02:00,
2013-06-16 05:07:00,42.2,29.7,29.92,East,99,0.0,0.0,61,0.00,,,0.00,Wunderground v.1.15,2013-06-16 12:07:00,
2013-06-16 05:12:00,41.9,30.6,29.92,East,99,0.0,0.0,64,0.00,,,0.00,Wunderground v.1.15,2013-06-16 12:12:00,
2013-06-16 05:17:00,41.6,30.3,29.93,East,99,0.0,1.0,64,0.00,,,0.00,Wunderground v.1.15,2013-06-16 12:17:00,
2013-06-16 05:22:00,41.5,30.6,29.93,East,99,0.0,1.0,65,0.00,,,0.00,Wunderground v.1.15,2013-06-16 12:22:00,
2013-06-16 05:27:00,41.6,30.7,29.93,East,99,0.0,1.0,65,0.00,,,0.00,Wunderground v.1.15,2013-06-16 12:27:00,
2013-06-16 05:32:00,41.6,29.9,29.93,East,99,0.0,0.0,63,0.00,,,0.00,Wunderground v.1.15,2013-06-16 12:32:00,
2013-06-16 05:37:00,41.6,30.7,29.93,East,99,0.0,0.0,65,0.00,,,0.00,Wunderground v.1.15,2013-06-16 12:37:00,
2013-06-16 05:42:00,41.5,30.6,29.93,East,99,0.0,0.0,65,0.00,,,0.00,Wunderground v.1.15,2013-06-16 12:42:00,
2013-06-16 05:47:00,41.3,30.0,29.94,East,99,0.0,0.0,64,0.00,,,0.00,Wunderground v.1.15,2013-06-16 12:47:00,
2013-06-16 05:53:00,41.1,29.8,29.94,East,99,0.0,0.0,64,0.00,,,0.00,Wunderground v.1.15,2013-06-16 12:53:00,
2013-06-16 05:58:00,41.2,30.3,29.94,East,99,0.0,0.0,65,0.00,,,0.00,Wunderground v.1.15,2013-06-16 12:58:00,
2013-06-16 06:03:00,41.6,30.7,29.95,East,99,0.0,0.0,65,0.00,,,0.00,Wunderground v.1.15,2013-06-16 13:03:00,
2013-06-16 06:09:00,42.6,30.5,29.95,East,99,1.0,1.0,62,0.00,,,0.00,Wunderground v.1.15,2013-06-16 13:09:00,
2013-06-16 06:14:00,43.5,29.7,29.96,East,99,0.0,0.0,58,0.00,,,0.00,Wunderground v.1.15,2013-06-16 13:14:00,
2013-06-16 06:19:00,44.2,29.5,29.96,East,99,0.0,0.0,56,0.00,,,0.00,Wunderground v.1.15,2013-06-16 13:19:00,
2013-06-16 06:24:00,45.2,30.0,29.96,East,99,0.0,0.0,55,0.00,,,0.00,Wunderground v.1.15,2013-06-16 13:24:00,
2013-06-16 06:29:00,46.2,30.0,29.94,East,99,0.0,0.0,53,0.00,,,0.00,Wunderground v.1.15,2013-06-16 13:29:00,
2013-06-16 06:34:00,47.3,30.5,29.94,East,99,0.0,0.0,52,0.00,,,0.00,Wunderground v.1.15,2013-06-16 13:34:00,
2013-06-16 06:39:00,48.3,30.0,29.94,East,99,0.0,0.0,49,0.00,,,0.00,Wunderground v.1.15,2013-06-16 13:39:00,
2013-06-16 06:44:00,49.5,30.1,29.94,East,99,0.0,0.0,47,0.00,,,0.00,Wunderground v.1.15,2013-06-16 13:44:00,
2013-06-16 06:49:00,50.5,29.9,29.94,East,99,0.0,0.0,45,0.00,,,0.00,Wunderground v.1.15,2013-06-16 13:49:00,
2013-06-16 06:54:00,51.7,30.5,29.94,East,99,0.0,0.0,44,0.00,,,0.00,Wunderground v.1.15,2013-06-16 13:54:00,
2013-06-16 06:59:00,52.8,30.9,29.93,East,99,0.0,1.0,43,0.00,,,0.00,Wunderground v.1.15,2013-06-16 13:59:00,
2013-06-16 07:04:00,53.8,30.6,29.93,East,99,0.0,1.0,41,0.00,,,0.00,Wunderground v.1.15,2013-06-16 14:04:00,
2013-06-16 07:09:00,55.0,29.2,29.93,East,99,0.0,1.0,37,0.00,,,0.00,Wunderground v.1.15,2013-06-16 14:09:00,
2013-06-16 07:14:00,56.0,30.1,29.94,East,99,0.0,2.0,37,0.00,,,0.00,Wunderground v.1.15,2013-06-16 14:14:00,
2013-06-16 07:19:00,57.0,29.6,29.94,East,99,0.0,2.0,35,0.00,,,0.00,Wunderground v.1.15,2013-06-16 14:19:00,
2013-06-16 07:24:00,58.0,30.5,29.94,East,99,0.0,1.0,35,0.00,,,0.00,Wunderground v.1.15,2013-06-16 14:24:00,
2013-06-16 07:29:00,58.6,29.6,29.92,East,99,0.0,1.0,33,0.00,,,0.00,Wunderground v.1.15,2013-06-16 14:29:00,
2013-06-16 07:34:00,59.0,28.4,29.92,East,99,0.0,1.0,31,0.00,,,0.00,Wunderground v.1.15,2013-06-16 14:34:00,
2013-06-16 07:39:00,59.8,29.9,29.92,East,99,0.0,4.0,32,0.00,,,0.00,Wunderground v.1.15,2013-06-16 14:39:00,
2013-06-16 07:44:00,60.5,29.7,29.92,East,99,0.0,0.0,31,0.00,,,0.00,Wunderground v.1.15,2013-06-16 14:44:00,
2013-06-16 07:49:00,61.3,29.6,29.92,East,99,0.0,1.0,30,0.00,,,0.00,Wunderground v.1.15,2013-06-16 14:49:00,
2013-06-16 07:54:00,62.1,31.1,29.92,East,99,1.0,1.0,31,0.00,,,0.00,Wunderground v.1.15,2013-06-16 14:54:00,
2013-06-16 07:59:00,62.4,31.3,29.92,East,99,1.0,2.0,31,0.00,,,0.00,Wunderground v.1.15,2013-06-16 14:59:00,
2013-06-16 08:04:00,62.1,31.9,29.92,East,99,0.0,2.0,32,0.00,,,0.00,Wunderground v.1.15,2013-06-16 15:04:00,
2013-06-16 08:09:00,62.4,32.1,29.92,East,99,0.0,2.0,32,0.00,,,0.00,Wunderground v.1.15,2013-06-16 15:09:00,
2013-06-16 08:14:00,62.7,31.6,29.94,East,99,0.0,1.0,31,0.00,,,0.00,Wunderground v.1.15,2013-06-16 15:14:00,
2013-06-16 08:19:00,63.2,32.0,29.94,East,99,0.0,1.0,31,0.00,,,0.00,Wunderground v.1.15,2013-06-16 15:19:00,
2013-06-16 08:24:00,63.7,32.5,29.94,East,99,0.0,1.0,31,0.00,,,0.00,Wunderground v.1.15,2013-06-16 15:24:00,
2013-06-16 08:29:00,63.9,32.6,29.94,East,99,0.0,1.0,31,0.00,,,0.00,Wunderground v.1.15,2013-06-16 15:29:00,
2013-06-16 08:34:00,63.7,34.0,29.94,East,99,0.0,2.0,33,0.00,,,0.00,Wunderground v.1.15,2013-06-16 15:34:00,
2013-06-16 08:40:00,63.5,33.1,29.94,East,99,0.0,0.0,32,0.00,,,0.00,Wunderground v.1.15,2013-06-16 15:40:00,
2013-06-16 08:45:00,63.7,33.3,29.95,East,99,0.0,0.0,32,0.00,,,0.00,Wunderground v.1.15,2013-06-16 15:45:00,
2013-06-16 08:50:00,64.0,33.5,29.95,SW,227,0.0,0.0,32,0.00,,,0.00,Wunderground v.1.15,2013-06-16 15:50:00,
2013-06-16 08:55:00,64.5,34.7,29.95,SW,230,0.0,1.0,33,0.00,,,0.00,Wunderground v.1.15,2013-06-16 15:55:00,
2013-06-16 09:00:00,64.5,34.7,29.94,SW,224,0.0,0.0,33,0.00,,,0.00,Wunderground v.1.15,2013-06-16 16:00:00,
2013-06-16 09:05:00,64.3,33.8,29.94,SW,224,0.0,4.0,32,0.00,,,0.00,Wunderground v.1.15,2013-06-16 16:05:00,
2013-06-16 09:10:00,64.3,34.6,29.94,WSW,246,0.0,2.0,33,0.00,,,0.00,Wunderground v.1.15,2013-06-16 16:10:00,
2013-06-16 09:15:00,64.5,34.7,29.96,South,181,2.0,2.0,33,0.00,,,0.00,Wunderground v.1.15,2013-06-16 16:15:00,
2013-06-16 09:20:00,64.5,33.2,29.96,SW,236,1.0,1.0,31,0.00,,,0.00,Wunderground v.1.15,2013-06-16 16:20:00,
2013-06-16 09:26:00,64.7,34.1,29.96,WSW,254,1.0,4.0,32,0.00,,,0.00,Wunderground v.1.15,2013-06-16 16:26:00,
2013-06-16 09:31:00,64.7,34.9,29.96,WSW,256,0.0,1.0,33,0.00,,,0.00,Wunderground v.1.15,2013-06-16 16:31:00,
2013-06-16 09:36:00,65.0,31.1,29.96,SSE,165,0.0,1.0,28,0.00,,,0.00,Wunderground v.1.15,2013-06-16 16:36:00,
2013-06-16 09:41:00,65.5,31.5,29.96,South,175,0.0,0.0,28,0.00,,,0.00,Wunderground v.1.15,2013-06-16 16:41:00,
2013-06-16 09:46:00,65.8,31.8,29.96,South,175,0.0,0.0,28,0.00,,,0.00,Wunderground v.1.15,2013-06-16 16:46:00,
2013-06-16 09:51:00,66.1,29.2,29.96,South,175,0.0,1.0,25,0.00,,,0.00,Wunderground v.1.15,2013-06-16 16:51:00,
2013-06-16 09:56:00,66.6,27.6,29.96,South,175,0.0,1.0,23,0.00,,,0.00,Wunderground v.1.15,2013-06-16 16:56:00,
2013-06-16 10:01:00,67.4,29.3,29.94,SSE,151,0.0,0.0,24,0.00,,,0.00,Wunderground v.1.15,2013-06-16 17:01:00,
2013-06-16 10:06:00,68.1,30.9,29.94,ESE,110,1.0,2.0,25,0.00,,,0.00,Wunderground v.1.15,2013-06-16 17:06:00,
2013-06-16 10:11:00,68.8,29.5,29.94,ESE,109,0.0,1.0,23,0.00,,,0.00,Wunderground v.1.15,2013-06-16 17:11:00,
2013-06-16 10:16:00,69.6,27.9,29.95,ESE,109,0.0,2.0,21,0.00,,,0.00,Wunderground v.1.15,2013-06-16 17:16:00,
2013-06-16 10:21:00,70.1,28.3,29.95,ESE,109,0.0,1.0,21,0.00,,,0.00,Wunderground v.1.15,2013-06-16 17:21:00,
2013-06-16 10:26:00,70.3,28.5,29.95,NE,40,0.0,4.0,21,0.00,,,0.00,Wunderground v.1.15,2013-06-16 17:26:00,
2013-06-16 10:31:00,70.3,28.5,29.95,NNW,344,1.0,6.0,21,0.00,,,0.00,Wunderground v.1.15,2013-06-16 17:31:00,
2013-06-16 10:36:00,70.6,28.7,29.95,North,350,1.0,6.0,21,0.00,,,0.00,Wunderground v.1.15,2013-06-16 17:36:00,
2013-06-16 10:41:00,70.8,25.2,29.95,NNW,337,0.0,2.0,18,0.00,,,0.00,Wunderground v.1.15,2013-06-16 17:41:00,
2013-06-16 10:46:00,71.1,24.0,29.93,North,10,0.0,4.0,17,0.00,,,0.00,Wunderground v.1.15,2013-06-16 17:46:00,
2013-06-16 10:51:00,71.6,18.1,29.93,NNE,18,0.0,4.0,13,0.00,,,0.00,Wunderground v.1.15,2013-06-16 17:51:00,
2013-06-16 10:56:00,72.3,18.7,29.93,East,80,2.0,4.0,13,0.00,,,0.00,Wunderground v.1.15,2013-06-16 17:56:00,
2013-06-16 11:01:00,72.8,17.2,29.93,NNE,31,6.0,7.0,12,0.00,,,0.00,Wunderground v.1.15,2013-06-16 18:01:00,
2013-06-16 11:06:00,73.0,17.3,29.93,North,0,0.0,7.0,12,0.00,,,0.00,Wunderground v.1.15,2013-06-16 18:06:00,
2013-06-16 11:11:00,73.2,19.4,29.93,North,0,1.0,2.0,13,0.00,,,0.00,Wunderground v.1.15,2013-06-16 18:11:00,
2013-06-16 11:16:00,73.3,17.6,29.94,NNE,30,0.0,8.0,12,0.00,,,0.00,Wunderground v.1.15,2013-06-16 18:16:00,
2013-06-16 11:21:00,73.7,23.1,29.94,East,95,0.0,1.0,15,0.00,,,0.00,Wunderground v.1.15,2013-06-16 18:21:00,
2013-06-16 11:26:00,73.9,21.7,29.94,North,8,4.0,7.0,14,0.00,,,0.00,Wunderground v.1.15,2013-06-16 18:26:00,
2013-06-16 11:31:00,73.9,21.7,29.93,NNE,31,1.0,7.0,14,0.00,,,0.00,Wunderground v.1.15,2013-06-16 18:31:00,
2013-06-16 11:36:00,73.9,21.7,29.93,NE,47,0.0,7.0,14,0.00,,,0.00,Wunderground v.1.15,2013-06-16 18:36:00,
2013-06-16 11:41:00,73.7,23.1,29.93,NNW,339,1.0,2.0,15,0.00,,,0.00,Wunderground v.1.15,2013-06-16 18:41:00,
2013-06-16 11:46:00,74.0,23.4,29.93,North,357,1.0,6.0,15,0.00,,,0.00,Wunderground v.1.15,2013-06-16 18:46:00,
2013-06-16 11:51:00,74.2,23.5,29.93,North,357,6.0,6.0,15,0.00,,,0.00,Wunderground v.1.15,2013-06-16 18:51:00,
2013-06-16 11:56:00,74.9,25.6,29.93,NW,319,6.0,8.0,16,0.00,,,0.00,Wunderground v.1.15,2013-06-16 18:56:00,
2013-06-16 12:01:00,75.4,26.1,29.92,West,261,0.0,4.0,16,0.00,,,0.00,Wunderground v.1.15,2013-06-16 19:01:00,
2013-06-16 12:06:00,76.0,25.0,29.92,SW,219,0.0,4.0,15,0.00,,,0.00,Wunderground v.1.15,2013-06-16 19:06:00,
2013-06-16 12:12:00,76.3,25.2,29.92,North,0,0.0,8.0,15,0.00,,,0.00,Wunderground v.1.15,2013-06-16 19:12:00,
2013-06-16 12:17:00,76.7,27.1,29.92,NNW,336,6.0,8.0,16,0.00,,,0.00,Wunderground v.1.15,2013-06-16 19:17:00,
2013-06-16 12:22:00,77.0,25.8,29.92,WSW,244,0.0,4.0,15,0.00,,,0.00,Wunderground v.1.15,2013-06-16 19:22:00,
2013-06-16 12:27:00,77.4,24.4,29.92,West,260,1.0,6.0,14,0.00,,,0.00,Wunderground v.1.15,2013-06-16 19:27:00,
2013-06-16 12:32:00,77.9,28.1,29.91,NE,42,2.0,2.0,16,0.00,,,0.00,Wunderground v.1.15,2013-06-16 19:32:00,
2013-06-16 12:37:00,77.9,26.5,29.91,NNE,30,7.0,8.0,15,0.00,,,0.00,Wunderground v.1.15,2013-06-16 19:37:00,
2013-06-16 12:42:00,78.1,28.2,29.91,NNE,24,6.0,13.0,16,0.00,,,0.00,Wunderground v.1.15,2013-06-16 19:42:00,
2013-06-16 12:47:00,78.3,26.8,29.90,NNW,342,2.0,13.0,15,0.00,,,0.00,Wunderground v.1.15,2013-06-16 19:47:00,
2013-06-16 12:52:00,78.6,27.1,29.90,NW,309,7.0,9.0,15,0.00,,,0.00,Wunderground v.1.15,2013-06-16 19:52:00,
2013-06-16 12:57:00,78.8,30.3,29.90,North,1,10.0,10.0,17,0.00,,,0.00,Wunderground v.1.15,2013-06-16 19:57:00,
2013-06-16 13:02:00,78.8,25.5,29.90,North,356,2.0,7.0,14,0.00,,,0.00,Wunderground v.1.15,2013-06-16 20:02:00,
2013-06-16 13:07:00,78.8,23.8,29.90,NNE,20,11.0,14.0,13,0.00,,,0.00,Wunderground v.1.15,2013-06-16 20:07:00,
2013-06-16 13:12:00,78.6,28.6,29.90,SW,230,0.0,8.0,16,0.00,,,0.00,Wunderground v.1.15,2013-06-16 20:12:00,
2013-06-16 13:17:00,79.4,27.7,29.91,North,4,2.0,10.0,15,0.00,,,0.00,Wunderground v.1.15,2013-06-16 20:17:00,
2013-06-16 13:22:00,79.4,24.2,29.91,NNW,347,1.0,9.0,13,0.00,,,0.00,Wunderground v.1.15,2013-06-16 20:22:00,
2013-06-16 13:27:00,79.8,26.3,29.91,WNW,298,6.0,9.0,14,0.00,,,0.00,Wunderground v.1.15,2013-06-16 20:27:00,
2013-06-16 13:32:00,80.7,27.0,29.90,WNW,299,2.0,7.0,14,0.00,,,0.00,Wunderground v.1.15,2013-06-16 20:32:00,
2013-06-16 13:37:00,80.7,27.0,29.90,NW,326,2.0,10.0,14,0.00,,,0.00,Wunderground v.1.15,2013-06-16 20:37:00,
2013-06-16 13:42:00,80.5,26.9,29.90,North,0,4.0,6.0,14,0.00,,,0.00,Wunderground v.1.15,2013-06-16 20:42:00,
2013-06-16 13:47:00,80.7,23.3,29.90,North,357,4.0,11.0,12,0.00,,,0.00,Wunderground v.1.15,2013-06-16 20:47:00,
2013-06-16 13:52:00,80.5,25.1,29.90,WNW,299,0.0,8.0,13,0.00,,,0.00,Wunderground v.1.15,2013-06-16 20:52:00,
2013-06-16 13:57:00,80.9,27.2,29.90,NW,325,9.0,10.0,14,0.00,,,0.00,Wunderground v.1.15,2013-06-16 20:57:00,
2013-06-16 14:02:00,81.1,27.4,29.90,North,356,7.0,11.0,14,0.00,,,0.00,Wunderground v.1.15,2013-06-16 21:02:00,
2013-06-16 14:07:00,81.1,30.6,29.90,WNW,298,7.0,13.0,16,0.00,,,0.00,Wunderground v.1.15,2013-06-16 21:07:00,
2013-06-16 14:12:00,81.4,27.6,29.90,WSW,244,7.0,11.0,14,0.00,,,0.00,Wunderground v.1.15,2013-06-16 21:12:00,
2013-06-16 14:17:00,81.6,26.0,29.91,West,280,1.0,13.0,13,0.00,,,0.00,Wunderground v.1.15,2013-06-16 21:17:00,
2013-06-16 14:22:00,81.2,25.7,29.91,West,280,4.0,11.0,13,0.00,,,0.00,Wunderground v.1.15,2013-06-16 21:22:00,
2013-06-16 14:27:00,81.6,26.0,29.91,West,268,1.0,11.0,13,0.00,,,0.00,Wunderground v.1.15,2013-06-16 21:27:00,
2013-06-16 14:32:00,81.4,27.6,29.91,WNW,282,10.0,11.0,14,0.00,,,0.00,Wunderground v.1.15,2013-06-16 21:32:00,
2013-06-16 14:37:00,80.9,27.2,29.91,WNW,301,10.0,16.0,14,0.00,,,0.00,Wunderground v.1.15,2013-06-16 21:37:00,
2013-06-16 14:43:00,80.7,27.0,29.91,WNW,291,10.0,14.0,14,0.00,,,0.00,Wunderground v.1.15,2013-06-16 21:43:00,
2013-06-16 14:48:00,80.9,30.5,29.91,NW,305,9.0,15.0,16,0.00,,,0.00,Wunderground v.1.15,2013-06-16 21:48:00,
2013-06-16 14:53:00,80.7,33.2,29.91,NNW,329,13.0,15.0,18,0.00,,,0.00,Wunderground v.1.15,2013-06-16 21:53:00,
2013-06-16 14:58:00,80.5,30.2,29.91,West,268,4.0,20.0,16,0.00,,,0.00,Wunderground v.1.15,2013-06-16 21:58:00,
2013-06-16 15:03:00,80.9,30.5,29.91,WNW,295,11.0,17.0,16,0.00,,,0.00,Wunderground v.1.15,2013-06-16 22:03:00,
2013-06-16 15:08:00,80.1,32.7,29.91,West,260,10.0,22.0,18,0.00,,,0.00,Wunderground v.1.15,2013-06-16 22:08:00,
2013-06-16 15:14:00,80.3,31.5,29.91,NW,308,10.0,16.0,17,0.00,,,0.00,Wunderground v.1.15,2013-06-16 22:14:00,
2013-06-16 15:19:00,80.5,33.1,29.92,NW,304,8.0,16.0,18,0.00,,,0.00,Wunderground v.1.15,2013-06-16 22:19:00,
2013-06-16 15:24:00,80.5,33.1,29.92,WNW,282,11.0,16.0,18,0.00,,,0.00,Wunderground v.1.15,2013-06-16 22:24:00,
2013-06-16 15:29:00,80.3,34.3,29.92,West,280,10.0,17.0,19,0.00,,,0.00,Wunderground v.1.15,2013-06-16 22:29:00,
2013-06-16 15:34:00,80.9,34.8,29.92,West,281,13.0,14.0,19,0.00,,,0.00,Wunderground v.1.15,2013-06-16 22:34:00,
2013-06-16 15:39:00,80.5,33.1,29.92,WNW,302,11.0,17.0,18,0.00,,,0.00,Wunderground v.1.15,2013-06-16 22:39:00,
2013-06-16 15:44:00,80.9,34.8,29.92,West,270,8.0,17.0,19,0.00,,,0.00,Wunderground v.1.15,2013-06-16 22:44:00,
2013-06-16 15:49:00,81.2,35.0,29.92,WNW,284,10.0,17.0,19,0.00,,,0.00,Wunderground v.1.15,2013-06-16 22:49:00,
2013-06-16 15:54:00,80.5,31.7,29.92,WNW,295,7.0,15.0,17,0.00,,,0.00,Wunderground v.1.15,2013-06-16 22:54:00,
2013-06-16 15:59:00,80.9,33.4,29.92,West,268,8.0,15.0,18,0.00,,,0.00,Wunderground v.1.15,2013-06-16 22:59:00,
2013-06-16 16:04:00,80.7,31.8,29.92,WSW,246,4.0,21.0,17,0.00,,,0.00,Wunderground v.1.15,2013-06-16 23:04:00,
2013-06-16 16:09:00,80.5,33.1,29.92,West,263,11.0,21.0,18,0.00,,,0.00,Wunderground v.1.15,2013-06-16 23:09:00,
2013-06-16 16:14:00,80.5,33.1,29.91,WNW,288,9.0,17.0,18,0.00,,,0.00,Wunderground v.1.15,2013-06-16 23:14:00,
2013-06-16 16:19:00,80.3,32.9,29.91,WNW,284,17.0,17.0,18,0.00,,,0.00,Wunderground v.1.15,2013-06-16 23:19:00,
2013-06-16 16:24:00,80.1,31.3,29.91,West,272,7.0,16.0,17,0.00,,,0.00,Wunderground v.1.15,2013-06-16 23:24:00,
2013-06-16 16:29:00,79.9,32.6,29.93,WNW,292,11.0,18.0,18,0.00,,,0.00,Wunderground v.1.15,2013-06-16 23:29:00,
2013-06-16 16:34:00,80.3,31.5,29.93,WNW,295,8.0,18.0,17,0.00,,,0.00,Wunderground v.1.15,2013-06-16 23:34:00,
2013-06-16 16:39:00,80.7,33.2,29.93,West,268,11.0,18.0,18,0.00,,,0.00,Wunderground v.1.15,2013-06-16 23:39:00,
2013-06-16 16:44:00,80.3,32.9,29.93,WNW,296,11.0,17.0,18,0.00,,,0.00,Wunderground v.1.15,2013-06-16 23:44:00,
2013-06-16 16:49:00,80.1,32.7,29.93,West,261,2.0,17.0,18,0.00,,,0.00,Wunderground v.1.15,2013-06-16 23:49:00,
2013-06-16 16:54:00,80.3,32.9,29.93,WSW,250,4.0,14.0,18,0.00,,,0.00,Wunderground v.1.15,2013-06-16 23:54:00,
2013-06-16 16:59:00,80.3,32.9,29.93,West,278,17.0,17.0,18,0.00,,,0.00,Wunderground v.1.15,2013-06-16 23:59:00,
2013-06-16 17:04:00,79.8,32.5,29.93,WNW,288,8.0,16.0,18,0.00,,,0.00,Wunderground v.1.15,2013-06-17 00:04:00,
2013-06-16 17:09:00,80.1,32.7,29.93,West,265,9.0,16.0,18,0.00,,,0.00,Wunderground v.1.15,2013-06-17 00:09:00,
2013-06-16 17:14:00,80.3,32.9,29.94,WNW,296,8.0,14.0,18,0.00,,,0.00,Wunderground v.1.15,2013-06-17 00:14:00,
2013-06-16 17:19:00,79.9,33.9,29.94,WNW,288,7.0,16.0,19,0.00,,,0.00,Wunderground v.1.15,2013-06-17 00:19:00,
2013-06-16 17:24:00,80.1,32.7,29.94,NW,320,4.0,14.0,18,0.00,,,0.00,Wunderground v.1.15,2013-06-17 00:24:00,
2013-06-16 17:29:00,80.1,32.7,29.95,NW,313,8.0,15.0,18,0.00,,,0.00,Wunderground v.1.15,2013-06-17 00:29:00,
2013-06-16 17:34:00,79.8,32.5,29.95,West,263,1.0,17.0,18,0.00,,,0.00,Wunderground v.1.15,2013-06-17 00:34:00,
2013-06-16 17:40:00,79.6,33.7,29.95,WNW,289,2.0,8.0,19,0.00,,,0.00,Wunderground v.1.15,2013-06-17 00:40:00,
2013-06-16 17:45:00,79.2,34.6,29.95,North,349,8.0,17.0,20,0.00,,,0.00,Wunderground v.1.15,2013-06-17 00:45:00,
2013-06-16 17:50:00,79.0,34.5,29.95,WNW,301,13.0,13.0,20,0.00,,,0.00,Wunderground v.1.15,2013-06-17 00:50:00,
2013-06-16 17:55:00,78.5,32.8,29.95,SW,233,7.0,18.0,19,0.00,,,0.00,Wunderground v.1.15,2013-06-17 00:55:00,
2013-06-16 18:00:00,78.6,32.9,29.95,NW,308,15.0,15.0,19,0.00,,,0.00,Wunderground v.1.15,2013-06-17 01:00:00,
2013-06-16 18:05:00,78.1,32.5,29.95,NW,311,10.0,15.0,19,0.00,,,0.00,Wunderground v.1.15,2013-06-17 01:05:00,
2013-06-16 18:10:00,78.3,32.6,29.95,WNW,298,14.0,18.0,19,0.00,,,0.00,Wunderground v.1.15,2013-06-17 01:10:00,
2013-06-16 18:15:00,78.1,32.5,29.90,NW,315,9.0,18.0,19,0.00,,,0.00,Wunderground v.1.15,2013-06-17 01:15:00,
2013-06-16 18:20:00,77.9,31.0,29.90,WNW,288,9.0,11.0,18,0.00,,,0.00,Wunderground v.1.15,2013-06-17 01:20:00,
2013-06-16 18:25:00,77.9,32.3,29.90,WNW,298,6.0,16.0,19,0.00,,,0.00,Wunderground v.1.15,2013-06-17 01:25:00,
2013-06-16 18:30:00,78.1,32.5,29.90,West,264,7.0,10.0,19,0.00,,,0.00,Wunderground v.1.15,2013-06-17 01:30:00,
2013-06-16 18:35:00,78.3,32.6,29.90,WNW,291,7.0,13.0,19,0.00,,,0.00,Wunderground v.1.15,2013-06-17 01:35:00,
2013-06-16 18:40:00,78.3,31.3,29.90,WSW,258,4.0,11.0,18,0.00,,,0.00,Wunderground v.1.15,2013-06-17 01:40:00,
2013-06-16 18:45:00,78.1,31.1,29.90,WSW,248,4.0,11.0,18,0.00,,,0.00,Wunderground v.1.15,2013-06-17 01:45:00,
2013-06-16 18:50:00,78.1,32.5,29.90,West,267,4.0,7.0,19,0.00,,,0.00,Wunderground v.1.15,2013-06-17 01:50:00,
2013-06-16 18:55:00,77.9,32.3,29.90,WSW,240,6.0,11.0,19,0.00,,,0.00,Wunderground v.1.15,2013-06-17 01:55:00,
2013-06-16 19:00:00,77.6,32.1,29.91,West,280,9.0,10.0,19,0.00,,,0.00,Wunderground v.1.15,2013-06-17 02:00:00,
2013-06-16 19:06:00,77.2,33.0,29.91,WNW,282,0.0,14.0,20,0.00,,,0.00,Wunderground v.1.15,2013-06-17 02:06:00,
2013-06-16 19:11:00,76.8,32.7,29.91,WNW,288,7.0,13.0,20,0.00,,,0.00,Wunderground v.1.15,2013-06-17 02:11:00,
2013-06-16 19:16:00,76.5,33.6,29.87,West,270,10.0,13.0,21,0.00,,,0.00,Wunderground v.1.15,2013-06-17 02:16:00,
2013-06-16 19:21:00,75.8,34.2,29.87,WNW,292,7.0,9.0,22,0.00,,,0.00,Wunderground v.1.15,2013-06-17 02:21:00,
2013-06-16 19:26:00,75.6,34.1,29.87,WNW,291,4.0,13.0,22,0.00,,,0.00,Wunderground v.1.15,2013-06-17 02:26:00,
2013-06-16 19:31:00,75.3,33.8,29.89,NW,322,4.0,9.0,22,0.00,,,0.00,Wunderground v.1.15,2013-06-17 02:31:00,
2013-06-16 19:36:00,74.7,34.4,29.89,NW,309,8.0,13.0,23,0.00,,,0.00,Wunderground v.1.15,2013-06-17 02:36:00,
2013-06-16 19:41:00,74.2,35.1,29.89,WNW,301,10.0,11.0,24,0.00,,,0.00,Wunderground v.1.15,2013-06-17 02:41:00,
2013-06-16 19:46:00,73.5,34.5,29.89,WNW,301,7.0,13.0,24,0.00,,,0.00,Wunderground v.1.15,2013-06-17 02:46:00,
2013-06-16 19:51:00,73.3,34.3,29.89,WNW,298,6.0,10.0,24,0.00,,,0.00,Wunderground v.1.15,2013-06-17 02:51:00,
2013-06-16 19:56:00,72.8,35.9,29.89,NW,304,6.0,10.0,26,0.00,,,0.00,Wunderground v.1.15,2013-06-17 02:56:00,
2013-06-16 20:01:00,72.0,35.2,29.90,West,271,4.0,7.0,26,0.00,,,0.00,Wunderground v.1.15,2013-06-17 03:01:00,
2013-06-16 20:06:00,70.9,35.2,29.90,WNW,301,6.0,8.0,27,0.00,,,0.00,Wunderground v.1.15,2013-06-17 03:06:00,
2013-06-16 20:11:00,69.9,35.3,29.90,NW,311,0.0,6.0,28,0.00,,,0.00,Wunderground v.1.15,2013-06-17 03:11:00,
2013-06-16 20:16:00,69.3,34.8,29.90,WNW,298,6.0,10.0,28,0.00,,,0.00,Wunderground v.1.15,2013-06-17 03:16:00,
2013-06-16 20:21:00,68.9,34.4,29.90,NNW,335,4.0,7.0,28,0.00,,,0.00,Wunderground v.1.15,2013-06-17 03:21:00,
2013-06-16 20:26:00,68.6,34.2,29.90,NW,305,6.0,8.0,28,0.00,,,0.00,Wunderground v.1.15,2013-06-17 03:26:00,
2013-06-16 20:31:00,68.3,34.8,29.92,NW,308,4.0,8.0,29,0.00,,,0.00,Wunderground v.1.15,2013-06-17 03:31:00,
2013-06-16 20:36:00,67.6,35.0,29.92,WNW,296,8.0,8.0,30,0.00,,,0.00,Wunderground v.1.15,2013-06-17 03:36:00,
2013-06-16 20:41:00,67.4,34.9,29.92,NW,304,4.0,8.0,30,0.00,,,0.00,Wunderground v.1.15,2013-06-17 03:41:00,
2013-06-16 20:46:00,67.4,34.0,29.92,West,277,7.0,11.0,29,0.00,,,0.00,Wunderground v.1.15,2013-06-17 03:46:00,
2013-06-16 20:51:00,67.3,34.8,29.92,WNW,301,2.0,6.0,30,0.00,,,0.00,Wunderground v.1.15,2013-06-17 03:51:00,
2013-06-16 20:56:00,67.3,33.9,29.92,NW,313,2.0,10.0,29,0.00,,,0.00,Wunderground v.1.15,2013-06-17 03:56:00,
2013-06-16 21:01:00,67.3,33.9,29.92,WNW,285,1.0,8.0,29,0.00,,,0.00,Wunderground v.1.15,2013-06-17 04:01:00,
2013-06-16 21:06:00,67.3,33.9,29.92,WNW,301,6.0,13.0,29,0.00,,,0.00,Wunderground v.1.15,2013-06-17 04:06:00,
2013-06-16 21:11:00,67.1,34.6,29.92,NW,308,6.0,8.0,30,0.00,,,0.00,Wunderground v.1.15,2013-06-17 04:11:00,
2013-06-16 21:16:00,67.1,33.8,29.91,NW,316,4.0,9.0,29,0.00,,,0.00,Wunderground v.1.15,2013-06-17 04:16:00,
2013-06-16 21:21:00,66.8,34.3,29.91,WNW,299,2.0,4.0,30,0.00,,,0.00,Wunderground v.1.15,2013-06-17 04:21:00,
2013-06-16 21:27:00,66.6,34.2,29.91,NW,309,4.0,9.0,30,0.00,,,0.00,Wunderground v.1.15,2013-06-17 04:27:00,
2013-06-16 21:32:00,66.4,34.8,29.93,NW,315,1.0,6.0,31,0.00,,,0.00,Wunderground v.1.15,2013-06-17 04:32:00,
2013-06-16 21:37:00,66.1,34.6,29.93,WNW,299,0.0,6.0,31,0.00,,,0.00,Wunderground v.1.15,2013-06-17 04:37:00,
2013-06-16 21:42:00,65.8,35.9,29.93,WNW,299,0.0,1.0,33,0.00,,,0.00,Wunderground v.1.15,2013-06-17 04:42:00,
2013-06-16 21:47:00,65.3,35.4,29.94,WNW,299,0.0,1.0,33,0.00,,,0.00,Wunderground v.1.15,2013-06-17 04:47:00,
2013-06-16 21:52:00,64.8,35.8,29.94,North,10,0.0,0.0,34,0.00,,,0.00,Wunderground v.1.15,2013-06-17 04:52:00,
2013-06-16 21:57:00,64.0,36.5,29.94,North,10,0.0,0.0,36,0.00,,,0.00,Wunderground v.1.15,2013-06-17 04:57:00,
2013-06-16 22:02:00,63.4,36.7,29.95,NE,34,0.0,0.0,37,0.00,,,0.00,Wunderground v.1.15,2013-06-17 05:02:00,
2013-06-16 22:07:00,62.7,36.7,29.95,East,93,1.0,7.0,38,0.00,,,0.00,Wunderground v.1.15,2013-06-17 05:07:00,
2013-06-16 22:12:00,62.0,37.4,29.95,East,93,0.0,4.0,40,0.00,,,0.00,Wunderground v.1.15,2013-06-17 05:12:00,
2013-06-16 22:17:00,61.3,36.1,29.93,East,96,0.0,4.0,39,0.00,,,0.00,Wunderground v.1.15,2013-06-17 05:17:00,
2013-06-16 22:22:00,60.9,35.8,29.93,East,100,0.0,4.0,39,0.00,,,0.00,Wunderground v.1.15,2013-06-17 05:22:00,
2013-06-16 22:27:00,60.5,35.4,29.93,East,100,4.0,4.0,39,0.00,,,0.00,Wunderground v.1.15,2013-06-17 05:27:00,
2013-06-16 22:32:00,60.2,35.1,29.95,East,100,4.0,7.0,39,0.00,,,0.00,Wunderground v.1.15,2013-06-17 05:32:00,
2013-06-16 22:37:00,59.9,34.9,29.95,East,100,1.0,7.0,39,0.00,,,0.00,Wunderground v.1.15,2013-06-17 05:37:00,
2013-06-16 22:42:00,59.8,34.8,29.95,ESE,121,1.0,2.0,39,0.00,,,0.00,Wunderground v.1.15,2013-06-17 05:42:00,
2013-06-16 22:47:00,59.6,34.6,29.95,ESE,103,0.0,2.0,39,0.00,,,0.00,Wunderground v.1.15,2013-06-17 05:47:00,
2013-06-16 22:52:00,59.5,33.9,29.95,ESE,103,1.0,2.0,38,0.00,,,0.00,Wunderground v.1.15,2013-06-17 05:52:00,
2013-06-16 22:57:00,59.2,34.2,29.95,ESE,103,0.0,2.0,39,0.00,,,0.00,Wunderground v.1.15,2013-06-17 05:57:00,
2013-06-16 23:02:00,58.9,34.0,29.95,ESE,103,0.0,0.0,39,0.00,,,0.00,Wunderground v.1.15,2013-06-17 06:02:00,
2013-06-16 23:07:00,58.7,33.1,29.95,ESE,103,0.0,1.0,38,0.00,,,0.00,Wunderground v.1.15,2013-06-17 06:07:00,
2013-06-16 23:12:00,58.4,35.4,29.95,ESE,103,0.0,0.0,42,0.00,,,0.00,Wunderground v.1.15,2013-06-17 06:12:00,
2013-06-16 23:17:00,58.1,36.3,29.94,ESE,103,0.0,0.0,44,0.00,,,0.00,Wunderground v.1.15,2013-06-17 06:17:00,
2013-06-16 23:22:00,57.6,34.1,29.94,ESE,103,1.0,2.0,41,0.00,,,0.00,Wunderground v.1.15,2013-06-17 06:22:00,
2013-06-16 23:27:00,57.6,33.4,29.94,ESE,103,0.0,2.0,40,0.00,,,0.00,Wunderground v.1.15,2013-06-17 06:27:00,
2013-06-16 23:32:00,57.5,34.0,29.94,ESE,103,0.0,1.0,41,0.00,,,0.00,Wunderground v.1.15,2013-06-17 06:32:00,
2013-06-16 23:37:00,57.0,34.1,29.94,SE,145,0.0,1.0,42,0.00,,,0.00,Wunderground v.1.15,2013-06-17 06:37:00,
2013-06-16 23:42:00,56.6,35.5,29.94,WNW,294,0.0,2.0,45,0.00,,,0.00,Wunderground v.1.15,2013-06-17 06:42:00,
2013-06-16 23:47:00,56.2,35.1,29.95,WNW,294,0.0,2.0,45,0.00,,,0.00,Wunderground v.1.15,2013-06-17 06:47:00,
2013-06-16 23:52:00,56.0,35.5,29.95,NW,313,0.0,0.0,46,0.00,,,0.00,Wunderground v.1.15,2013-06-17 06:52:00,
2013-06-16 23:57:00,55.7,35.8,29.95,East,79,2.0,4.0,47,0.00,,,0.00,Wunderground v.1.15,2013-06-17 06:57:00,